Munising, MI

5:26 AM EST on December 27, 2014 (GMT -0500)
Delta County | Change Station
CLOSE
Current Station
Airport
Location: Escanaba,
Elevation: 607 ft
Nearby Weather Stations
Active Advisory: Winter Weather Advisory

Elev 607 ft 45.72 °N, 87.09 °W | Updated 11 minutes ago

Snow
Snow
32 °F
Feels Like 29 °F
N
4
Wind Variable Wind from NNE

Today
High -- | Low -- °F
--% Chance of Precip.
Yesterday
High -- | Low -- °F
Precip. -- in
8:29 AM 5:06 PM
Waxing Crescent, 35% visible
Pressure 29.97 in
Visibility 3.0 miles
Clouds Overcast 300 ft
Windchill 29 °F
Dew Point 30 °F
Humidity 93%
Rainfall 0.00 in
Snow Depth Not available.
UV 0 out of 12
Pollen .10 out of 12
Air Quality Not available.
Flu Activity Not available.
METAR KESC 271015Z AUTO 03003KT 3SM OVC003 00/M01 A2997 RMK AO1

More Conditions Fewer Conditions

Pressure 29.97 in
Visibility 3.0 miles
Clouds Overcast 300 ft
Windchill 29 °F
Dew Point 30 °F
Humidity 93%
Rainfall 0.00 in
Snow Depth Not available.
UV 0 out of 12
Pollen .10 out of 12
Air Quality Not available.
Flu Activity Not available.
METAR KESC 271015Z AUTO 03003KT 3SM OVC003 00/M01 A2997 RMK AO1

More Conditions Fewer Conditions

10-Day Weather Forecast

Almanac

Astronomy

Dec. 27, 2014 Rise Set
Actual Time
Civil Twilight
Nautical Twilight
Astronomical Twilight
Moon
Length of Visible Light
Length of Day
Tomorrow will be .
, % of the Moon is Illuminated

Today's Extremes

State Highs State Lows

Community

WunderPhotos

Upload Photos

1,780,869 photos uploaded!

WunderBlogs® & News

Nearby

Air Quality

  Air Quality AQ Index Pollutant
Not available.

Snow Depth

Station Depth Elevation

Earthquake Activity

City Distance Mag. Time & Date
Minimum magnitude displayed is 2.5.

Coastal Water Temperatures

Place Temperature

Nearby Weather Stations